aviador You're here:

KMHS Decoded Metar

MOUNT SHASTA in CA, USA
Report Time2018-07-22 06:56:00
UTC Time2018-07-22 07:03:38
Flight Rules vfr VFR
WindCalm
Visibility9999 m
Phenomena:N/A
Clouds:N/A
Expected CloudBase > 5,200 ft AGL from Temp-Dew spread
CeilingNone
Temp16°C (ISA +8)
Dew Point03°C (42% RH)
AAT14.5°C
QNH1021 hPa
Density Alt4,318 ft
Elevation3,537 ft
Report Wrong Elevation
Raw Report
KMHS 220656Z AUTO 00000KT 7SM CLR 16/03 A3015 RMK AO2 SLP192
T01610033=

Extra information for KMHS:More info

Metar Taf Metar & Taf Last 4 Metars F.Rules Stats Wind Profile Meteogram Temp Stats Airport Information Weather charts Add Link Nearby VenuesMetar ALERT Operation Metar Decoded Social comments

AIRNAV info for KMHS